sensor_id;sensor_type;location;lat;lon;timestamp;pressure;altitude;pressure_sealevel;temperature;humidity
13836;BME280;6988;52.614;13.500;2022-10-24T00:02:07;54303.09;;;-143.77;88.56
13836;BME280;6988;52.614;13.500;2022-10-24T00:06:59;54368.75;;;-143.77;89.00
13836;BME280;6988;52.614;13.500;2022-10-24T00:11:52;54376.97;;;-143.77;89.30
13836;BME280;6988;52.614;13.500;2022-10-24T00:16:43;54305.13;;;-143.77;89.19
13836;BME280;6988;52.614;13.500;2022-10-24T00:21:37;54331.81;;;-143.77;88.82
13836;BME280;6988;52.614;13.500;2022-10-24T00:26:29;54305.13;;;-143.77;89.39
13836;BME280;6988;52.614;13.500;2022-10-24T00:31:21;54309.25;;;-143.77;89.77
13836;BME280;6988;52.614;13.500;2022-10-24T00:36:16;54323.59;;;-143.77;90.63
13836;BME280;6988;52.614;13.500;2022-10-24T00:41:14;54298.97;;;-143.77;91.63
13836;BME280;6988;52.614;13.500;2022-10-24T00:46:07;54340.03;;;-143.77;91.82
13836;BME280;6988;52.614;13.500;2022-10-24T00:51:03;54317.44;;;-143.77;92.28
13836;BME280;6988;52.614;13.500;2022-10-24T00:56:00;54296.94;;;-143.77;92.94
13836;BME280;6988;52.614;13.500;2022-10-24T01:00:55;54325.66;;;-143.77;93.27
13836;BME280;6988;52.614;13.500;2022-10-24T01:06:16;54319.50;;;-143.77;93.36
13836;BME280;6988;52.614;13.500;2022-10-24T01:11:30;54321.56;;;-143.77;93.51
13836;BME280;6988;52.614;13.500;2022-10-24T01:16:35;54321.56;;;-143.77;94.00
13836;BME280;6988;52.614;13.500;2022-10-24T01:21:32;54317.44;;;-143.77;93.78
13836;BME280;6988;52.614;13.500;2022-10-24T01:27:02;54319.50;;;-143.77;93.60
13836;BME280;6988;52.614;13.500;2022-10-24T01:32:03;54286.69;;;-143.77;93.58
13836;BME280;6988;52.614;13.500;2022-10-24T01:37:05;54321.56;;;-143.77;93.50
13836;BME280;6988;52.614;13.500;2022-10-24T01:42:01;54311.28;;;-143.77;93.38
13836;BME280;6988;52.614;13.500;2022-10-24T01:47:00;54311.28;;;-143.77;93.87
13836;BME280;6988;52.614;13.500;2022-10-24T01:51:59;54303.09;;;-143.77;94.11
13836;BME280;6988;52.614;13.500;2022-10-24T01:56:53;54352.34;;;-143.77;94.14
13836;BME280;6988;52.614;13.500;2022-10-24T02:01:45;54296.94;;;-143.77;94.03
13836;BME280;6988;52.614;13.500;2022-10-24T02:06:41;54337.97;;;-143.77;93.99
13836;BME280;6988;52.614;13.500;2022-10-24T02:11:34;54298.97;;;-143.77;94.16
13836;BME280;6988;52.614;13.500;2022-10-24T02:16:26;54329.75;;;-143.77;94.42
13836;BME280;6988;52.614;13.500;2022-10-24T02:21:28;54311.28;;;-143.77;94.63
13836;BME280;6988;52.614;13.500;2022-10-24T02:26:32;54327.72;;;-143.77;94.79
13836;BME280;6988;52.614;13.500;2022-10-24T02:31:32;54325.66;;;-143.77;95.03
13836;BME280;6988;52.614;13.500;2022-10-24T02:36:28;54323.59;;;-143.77;94.71
13836;BME280;6988;52.614;13.500;2022-10-24T02:41:27;54327.72;;;-143.77;93.98
13836;BME280;6988;52.614;13.500;2022-10-24T02:46:23;54370.81;;;-143.77;93.96
13836;BME280;6988;52.614;13.500;2022-10-24T02:51:19;54331.81;;;-143.77;93.82
13836;BME280;6988;52.614;13.500;2022-10-24T02:56:13;54344.13;;;-143.77;93.32
13836;BME280;6988;52.614;13.500;2022-10-24T03:01:06;54372.84;;;-143.77;92.77
13836;BME280;6988;52.614;13.500;2022-10-24T03:05:58;54372.84;;;-143.77;92.28
13836;BME280;6988;52.614;13.500;2022-10-24T03:10:50;54376.97;;;-143.77;91.65
13836;BME280;6988;52.614;13.500;2022-10-24T03:15:42;54360.53;;;-143.77;91.58
13836;BME280;6988;52.614;13.500;2022-10-24T03:20:35;54393.38;;;-143.77;91.51
13836;BME280;6988;52.614;13.500;2022-10-24T03:25:27;54362.59;;;-143.77;91.72
13836;BME280;6988;52.614;13.500;2022-10-24T03:30:19;54348.22;;;-143.77;91.93
13836;BME280;6988;52.614;13.500;2022-10-24T03:35:10;54376.97;;;-143.77;92.00
13836;BME280;6988;52.614;13.500;2022-10-24T03:40:05;54385.16;;;-143.77;92.15
13836;BME280;6988;52.614;13.500;2022-10-24T03:44:57;54405.69;;;-143.77;92.51
13836;BME280;6988;52.614;13.500;2022-10-24T03:49:49;54389.28;;;-143.77;92.74
13836;BME280;6988;52.614;13.500;2022-10-24T03:54:41;54405.69;;;-143.77;94.03
13836;BME280;6988;52.614;13.500;2022-10-24T03:59:34;54381.06;;;-143.77;94.95
13836;BME280;6988;52.614;13.500;2022-10-24T04:04:26;54379.00;;;-143.77;94.76
13836;BME280;6988;52.614;13.500;2022-10-24T04:09:19;54376.97;;;-143.77;94.68
13836;BME280;6988;52.614;13.500;2022-10-24T04:14:11;54383.13;;;-143.77;94.79
13836;BME280;6988;52.614;13.500;2022-10-24T04:19:05;54387.22;;;-143.77;95.19
13836;BME280;6988;52.614;13.500;2022-10-24T04:23:57;54360.53;;;-143.77;95.40
13836;BME280;6988;52.614;13.500;2022-10-24T04:28:49;54401.56;;;-143.77;95.23
13836;BME280;6988;52.614;13.500;2022-10-24T04:33:41;54391.31;;;-143.77;95.16
13836;BME280;6988;52.614;13.500;2022-10-24T04:38:34;54368.75;;;-143.77;95.21
13836;BME280;6988;52.614;13.500;2022-10-24T04:43:26;54389.28;;;-143.77;95.00
13836;BME280;6988;52.614;13.500;2022-10-24T04:48:18;54411.84;;;-143.77;95.13
13836;BME280;6988;52.614;13.500;2022-10-24T04:53:10;54405.69;;;-143.77;95.26
13836;BME280;6988;52.614;13.500;2022-10-24T04:58:04;54405.69;;;-143.77;95.16
13836;BME280;6988;52.614;13.500;2022-10-24T05:02:56;54397.47;;;-143.77;94.85
13836;BME280;6988;52.614;13.500;2022-10-24T05:07:49;54432.34;;;-143.77;94.68
13836;BME280;6988;52.614;13.500;2022-10-24T05:12:41;54407.72;;;-143.77;94.87
13836;BME280;6988;52.614;13.500;2022-10-24T05:17:35;54413.88;;;-143.77;94.39
13836;BME280;6988;52.614;13.500;2022-10-24T05:22:27;54418.00;;;-143.77;94.05
13836;BME280;6988;52.614;13.500;2022-10-24T05:27:19;54393.38;;;-143.77;94.18
13836;BME280;6988;52.614;13.500;2022-10-24T05:32:14;54407.72;;;-143.77;93.79
13836;BME280;6988;52.614;13.500;2022-10-24T05:37:07;54438.50;;;-143.77;93.34
13836;BME280;6988;52.614;13.500;2022-10-24T05:41:59;54420.03;;;-143.77;94.12
13836;BME280;6988;52.614;13.500;2022-10-24T05:46:51;54430.31;;;-143.77;95.22
13836;BME280;6988;52.614;13.500;2022-10-24T05:51:43;54399.53;;;-143.77;95.44
13836;BME280;6988;52.614;13.500;2022-10-24T05:56:36;54393.38;;;-143.77;96.14
13836;BME280;6988;52.614;13.500;2022-10-24T06:01:28;54446.72;;;-143.77;96.24
13836;BME280;6988;52.614;13.500;2022-10-24T06:06:20;54381.06;;;-143.77;96.41
13836;BME280;6988;52.614;13.500;2022-10-24T06:11:13;54360.53;;;-143.77;96.78
13836;BME280;6988;52.614;13.500;2022-10-24T06:16:08;54395.44;;;-143.77;96.73
13836;BME280;6988;52.614;13.500;2022-10-24T06:21:03;54399.53;;;-143.77;97.28
13836;BME280;6988;52.614;13.500;2022-10-24T06:25:55;54346.19;;;-143.77;97.25
13836;BME280;6988;52.614;13.500;2022-10-24T06:30:49;54383.13;;;-143.77;97.08
13836;BME280;6988;52.614;13.500;2022-10-24T06:35:42;54393.38;;;-143.77;96.82
13836;BME280;6988;52.614;13.500;2022-10-24T06:40:36;54391.31;;;-143.77;96.46
13836;BME280;6988;52.614;13.500;2022-10-24T06:45:29;54399.53;;;-143.77;96.06
13836;BME280;6988;52.614;13.500;2022-10-24T06:50:21;54395.44;;;-143.77;95.70
13836;BME280;6988;52.614;13.500;2022-10-24T06:55:14;54356.44;;;-143.77;95.50
13836;BME280;6988;52.614;13.500;2022-10-24T07:00:08;54356.44;;;-143.77;95.49
13836;BME280;6988;52.614;13.500;2022-10-24T07:05:01;54385.16;;;-143.77;95.39
13836;BME280;6988;52.614;13.500;2022-10-24T07:09:56;54352.34;;;-143.77;95.44
13836;BME280;6988;52.614;13.500;2022-10-24T07:14:49;54356.44;;;-143.77;95.42
13836;BME280;6988;52.614;13.500;2022-10-24T07:19:41;54364.66;;;-143.77;96.14
13836;BME280;6988;52.614;13.500;2022-10-24T07:24:33;54327.72;;;-143.77;95.97
13836;BME280;6988;52.614;13.500;2022-10-24T07:29:25;54333.88;;;-143.77;95.46
13836;BME280;6988;52.614;13.500;2022-10-24T07:34:18;54323.59;;;-143.77;95.34
13836;BME280;6988;52.614;13.500;2022-10-24T07:39:11;54366.69;;;-143.77;95.30
13836;BME280;6988;52.614;13.500;2022-10-24T07:44:03;54292.84;;;-143.77;95.11
13836;BME280;6988;52.614;13.500;2022-10-24T07:48:55;54303.09;;;-143.77;95.00
13836;BME280;6988;52.614;13.500;2022-10-24T07:53:48;54282.56;;;-143.77;94.75
13836;BME280;6988;52.614;13.500;2022-10-24T07:58:41;54266.16;;;-143.77;94.12
13836;BME280;6988;52.614;13.500;2022-10-24T08:03:34;54239.47;;;-143.77;93.16
13836;BME280;6988;52.614;13.500;2022-10-24T08:08:26;54229.22;;;-143.77;92.12
13836;BME280;6988;52.614;13.500;2022-10-24T08:13:19;54216.91;;;-143.77;90.52
13836;BME280;6988;52.614;13.500;2022-10-24T08:18:11;54251.78;;;-143.77;88.13
13836;BME280;6988;52.614;13.500;2022-10-24T08:23:03;54192.28;;;-143.77;87.19
13836;BME280;6988;52.614;13.500;2022-10-24T08:27:55;54177.94;;;-143.77;86.09
13836;BME280;6988;52.614;13.500;2022-10-24T08:32:48;54179.97;;;-143.77;84.85
13836;BME280;6988;52.614;13.500;2022-10-24T08:37:40;54159.47;;;-143.77;84.33
13836;BME280;6988;52.614;13.500;2022-10-24T08:42:32;54147.16;;;-143.77;82.02
13836;BME280;6988;52.614;13.500;2022-10-24T08:47:31;54118.44;;;-143.77;80.26
13836;BME280;6988;52.614;13.500;2022-10-24T08:52:32;54122.53;;;-143.77;79.50
13836;BME280;6988;52.614;13.500;2022-10-24T08:57:29;54126.63;;;-143.77;78.78
13836;BME280;6988;52.614;13.500;2022-10-24T09:02:25;54095.88;;;-143.77;77.46
13836;BME280;6988;52.614;13.500;2022-10-24T09:07:20;54091.75;;;-143.77;77.16
13836;BME280;6988;52.614;13.500;2022-10-24T09:12:17;54077.41;;;-143.77;75.35
13836;BME280;6988;52.614;13.500;2022-10-24T09:17:17;54114.31;;;-143.77;75.88
13836;BME280;6988;52.614;13.500;2022-10-24T09:22:11;54077.41;;;-143.77;76.07
13836;BME280;6988;52.614;13.500;2022-10-24T09:27:10;54091.75;;;-143.77;74.82
13836;BME280;6988;52.614;13.500;2022-10-24T09:32:15;54060.97;;;-143.77;74.69
13836;BME280;6988;52.614;13.500;2022-10-24T09:37:29;54067.13;;;-143.77;74.37
13836;BME280;6988;52.614;13.500;2022-10-24T09:42:21;54081.50;;;-143.77;73.23
13836;BME280;6988;52.614;13.500;2022-10-24T09:47:27;54052.78;;;-143.77;73.02
13836;BME280;6988;52.614;13.500;2022-10-24T09:52:22;54048.66;;;-143.77;73.86
13836;BME280;6988;52.614;13.500;2022-10-24T09:57:16;54063.03;;;-143.77;72.99
13836;BME280;6988;52.614;13.500;2022-10-24T10:02:21;54036.38;;;-143.77;72.06
13836;BME280;6988;52.614;13.500;2022-10-24T10:07:18;54067.13;;;-143.77;71.79
13836;BME280;6988;52.614;13.500;2022-10-24T10:12:25;54038.41;;;-143.77;71.55
13836;BME280;6988;52.614;13.500;2022-10-24T10:17:25;54022.00;;;-143.77;71.49
13836;BME280;6988;52.614;13.500;2022-10-24T10:22:24;54024.06;;;-143.77;71.67
13836;BME280;6988;52.614;13.500;2022-10-24T10:27:28;54022.00;;;-143.77;71.00
13836;BME280;6988;52.614;13.500;2022-10-24T10:32:31;54044.56;;;-143.77;71.69
13836;BME280;6988;52.614;13.500;2022-10-24T10:37:30;53997.38;;;-143.77;70.22
13836;BME280;6988;52.614;13.500;2022-10-24T10:42:34;54040.47;;;-143.77;70.11
13836;BME280;6988;52.614;13.500;2022-10-24T10:47:38;54013.78;;;-143.77;70.58
13836;BME280;6988;52.614;13.500;2022-10-24T10:52:41;54026.09;;;-143.77;70.27
13836;BME280;6988;52.614;13.500;2022-10-24T10:57:47;54028.16;;;-143.77;70.65
13836;BME280;6988;52.614;13.500;2022-10-24T11:03:20;54040.47;;;-143.77;69.23
13836;BME280;6988;52.614;13.500;2022-10-24T11:09:00;54036.38;;;-143.77;69.73
13836;BME280;6988;52.614;13.500;2022-10-24T11:14:01;54034.31;;;-143.77;69.50
13836;BME280;6988;52.614;13.500;2022-10-24T11:19:00;54036.38;;;-143.77;70.51
13836;BME280;6988;52.614;13.500;2022-10-24T11:23:59;54040.47;;;-143.77;70.02
13836;BME280;6988;52.614;13.500;2022-10-24T11:28:58;54009.69;;;-143.77;69.92
13836;BME280;6988;52.614;13.500;2022-10-24T11:33:59;54026.09;;;-143.77;69.77
13836;BME280;6988;52.614;13.500;2022-10-24T11:38:57;54007.63;;;-143.77;69.63
13836;BME280;6988;52.614;13.500;2022-10-24T11:43:55;53999.44;;;-143.77;69.86
13836;BME280;6988;52.614;13.500;2022-10-24T11:48:54;53995.31;;;-143.77;69.18
13836;BME280;6988;52.614;13.500;2022-10-24T11:53:54;54032.25;;;-143.77;69.09
13836;BME280;6988;52.614;13.500;2022-10-24T11:58:59;54034.31;;;-143.77;68.72
13836;BME280;6988;52.614;13.500;2022-10-24T12:04:17;54007.63;;;-143.77;69.03
13836;BME280;6988;52.614;13.500;2022-10-24T12:09:40;54015.84;;;-143.77;68.74
13836;BME280;6988;52.614;13.500;2022-10-24T12:15:03;54044.56;;;-143.77;69.08
13836;BME280;6988;52.614;13.500;2022-10-24T12:20:05;53997.38;;;-143.77;68.43
13836;BME280;6988;52.614;13.500;2022-10-24T12:25:18;53974.81;;;-143.77;68.33
13836;BME280;6988;52.614;13.500;2022-10-24T12:30:17;54011.75;;;-143.77;68.12
13836;BME280;6988;52.614;13.500;2022-10-24T12:35:50;54024.06;;;-143.77;66.96
13836;BME280;6988;52.614;13.500;2022-10-24T12:40:52;53972.75;;;-143.77;67.43
13836;BME280;6988;52.614;13.500;2022-10-24T12:45:44;53974.81;;;-143.77;67.15
13836;BME280;6988;52.614;13.500;2022-10-24T12:51:27;54011.75;;;-143.77;67.10
13836;BME280;6988;52.614;13.500;2022-10-24T12:56:20;53966.59;;;-143.77;67.22
13836;BME280;6988;52.614;13.500;2022-10-24T13:01:25;53991.22;;;-143.77;67.10
13836;BME280;6988;52.614;13.500;2022-10-24T13:06:25;53980.97;;;-143.77;66.61
13836;BME280;6988;52.614;13.500;2022-10-24T13:11:39;53980.97;;;-143.77;65.38
13836;BME280;6988;52.614;13.500;2022-10-24T13:16:45;53964.56;;;-143.77;65.29
13836;BME280;6988;52.614;13.500;2022-10-24T13:21:48;53970.72;;;-143.77;65.55
13836;BME280;6988;52.614;13.500;2022-10-24T13:26:45;53964.56;;;-143.77;65.63
13836;BME280;6988;52.614;13.500;2022-10-24T13:31:47;53985.06;;;-143.77;64.42
13836;BME280;6988;52.614;13.500;2022-10-24T13:36:40;53970.72;;;-143.77;64.97
13836;BME280;6988;52.614;13.500;2022-10-24T13:41:38;54030.22;;;-143.77;64.16
13836;BME280;6988;52.614;13.500;2022-10-24T13:46:39;53956.34;;;-143.77;65.23
13836;BME280;6988;52.614;13.500;2022-10-24T13:51:41;53966.59;;;-143.77;63.98
13836;BME280;6988;52.614;13.500;2022-10-24T13:56:38;53980.97;;;-143.77;63.58
13836;BME280;6988;52.614;13.500;2022-10-24T14:01:35;53970.72;;;-143.77;64.14
13836;BME280;6988;52.614;13.500;2022-10-24T14:06:31;53958.41;;;-143.77;64.09
13836;BME280;6988;52.614;13.500;2022-10-24T14:11:26;53995.31;;;-143.77;64.50
13836;BME280;6988;52.614;13.500;2022-10-24T14:16:23;54019.94;;;-143.77;65.08
13836;BME280;6988;52.614;13.500;2022-10-24T14:21:20;54001.47;;;-143.77;64.85
13836;BME280;6988;52.614;13.500;2022-10-24T14:26:17;54030.22;;;-143.77;65.53
13836;BME280;6988;52.614;13.500;2022-10-24T14:31:21;54007.63;;;-143.77;65.70
13836;BME280;6988;52.614;13.500;2022-10-24T14:36:14;54026.09;;;-143.77;65.97
13836;BME280;6988;52.614;13.500;2022-10-24T14:41:09;54003.53;;;-143.77;66.11
13836;BME280;6988;52.614;13.500;2022-10-24T14:46:29;54013.78;;;-143.77;66.01
13836;BME280;6988;52.614;13.500;2022-10-24T14:51:27;54044.56;;;-143.77;66.19
13836;BME280;6988;52.614;13.500;2022-10-24T14:56:26;54046.63;;;-143.77;65.47
13836;BME280;6988;52.614;13.500;2022-10-24T15:01:20;54030.22;;;-143.77;65.65
13836;BME280;6988;52.614;13.500;2022-10-24T15:06:24;54032.25;;;-143.77;65.68
13836;BME280;6988;52.614;13.500;2022-10-24T15:11:20;54019.94;;;-143.77;65.75
13836;BME280;6988;52.614;13.500;2022-10-24T15:16:21;54060.97;;;-143.77;66.25
13836;BME280;6988;52.614;13.500;2022-10-24T15:21:18;54024.06;;;-143.77;66.68
13836;BME280;6988;52.614;13.500;2022-10-24T15:26:19;54069.19;;;-143.77;66.82
13836;BME280;6988;52.614;13.500;2022-10-24T15:31:16;54069.19;;;-143.77;66.65
13836;BME280;6988;52.614;13.500;2022-10-24T15:36:18;54044.56;;;-143.77;67.13
13836;BME280;6988;52.614;13.500;2022-10-24T15:41:12;54083.56;;;-143.77;67.40
13836;BME280;6988;52.614;13.500;2022-10-24T15:46:04;54089.72;;;-143.77;68.14
13836;BME280;6988;52.614;13.500;2022-10-24T15:50:57;54095.88;;;-143.77;68.49
13836;BME280;6988;52.614;13.500;2022-10-24T15:55:49;54083.56;;;-143.77;69.13
13836;BME280;6988;52.614;13.500;2022-10-24T16:00:42;54151.25;;;-143.77;69.44
13836;BME280;6988;52.614;13.500;2022-10-24T16:05:38;54065.09;;;-143.77;69.53
13836;BME280;6988;52.614;13.500;2022-10-24T16:10:32;54093.81;;;-143.77;69.85
13836;BME280;6988;52.614;13.500;2022-10-24T16:15:27;54118.44;;;-143.77;70.13
13836;BME280;6988;52.614;13.500;2022-10-24T16:20:21;54065.09;;;-143.77;70.23
13836;BME280;6988;52.614;13.500;2022-10-24T16:25:17;54120.47;;;-143.77;70.43
13836;BME280;6988;52.614;13.500;2022-10-24T16:30:11;54102.00;;;-143.77;69.85
13836;BME280;6988;52.614;13.500;2022-10-24T16:35:05;54106.13;;;-143.77;69.63
13836;BME280;6988;52.614;13.500;2022-10-24T16:39:58;54108.16;;;-143.77;69.54
13836;BME280;6988;52.614;13.500;2022-10-24T16:44:50;54110.22;;;-143.77;69.80
13836;BME280;6988;52.614;13.500;2022-10-24T16:49:44;54126.63;;;-143.77;70.05
13836;BME280;6988;52.614;13.500;2022-10-24T16:54:37;54122.53;;;-143.77;69.71
13836;BME280;6988;52.614;13.500;2022-10-24T16:59:29;54128.69;;;-143.77;69.85
13836;BME280;6988;52.614;13.500;2022-10-24T17:04:22;54097.91;;;-143.77;69.83
13836;BME280;6988;52.614;13.500;2022-10-24T17:09:15;54108.16;;;-143.77;69.87
13836;BME280;6988;52.614;13.500;2022-10-24T17:14:07;54132.78;;;-143.77;69.96
13836;BME280;6988;52.614;13.500;2022-10-24T17:18:59;54128.69;;;-143.77;69.75
13836;BME280;6988;52.614;13.500;2022-10-24T17:23:51;54159.47;;;-143.77;69.99
13836;BME280;6988;52.614;13.500;2022-10-24T17:28:45;54106.13;;;-143.77;70.01
13836;BME280;6988;52.614;13.500;2022-10-24T17:33:38;54118.44;;;-143.77;70.36
13836;BME280;6988;52.614;13.500;2022-10-24T17:38:39;54165.63;;;-143.77;70.43
13836;BME280;6988;52.614;13.500;2022-10-24T17:43:33;54108.16;;;-143.77;70.38
13836;BME280;6988;52.614;13.500;2022-10-24T17:48:27;54173.81;;;-143.77;70.49
13836;BME280;6988;52.614;13.500;2022-10-24T17:53:19;54157.41;;;-143.77;70.61
13836;BME280;6988;52.614;13.500;2022-10-24T17:58:11;54155.38;;;-143.77;70.36
13836;BME280;6988;52.614;13.500;2022-10-24T18:03:04;54155.38;;;-143.77;70.65
13836;BME280;6988;52.614;13.500;2022-10-24T18:07:59;54159.47;;;-143.77;70.90
13836;BME280;6988;52.614;13.500;2022-10-24T18:12:51;54147.16;;;-143.77;71.05
13836;BME280;6988;52.614;13.500;2022-10-24T18:17:43;54233.31;;;-143.77;71.25
13836;BME280;6988;52.614;13.500;2022-10-24T18:22:37;54167.66;;;-143.77;71.40
13836;BME280;6988;52.614;13.500;2022-10-24T18:27:30;54147.16;;;-143.77;71.55
13836;BME280;6988;52.614;13.500;2022-10-24T18:32:22;54196.41;;;-143.77;71.41
13836;BME280;6988;52.614;13.500;2022-10-24T18:37:14;54165.63;;;-143.77;71.70
13836;BME280;6988;52.614;13.500;2022-10-24T18:42:23;54163.56;;;-143.77;71.68
13836;BME280;6988;52.614;13.500;2022-10-24T18:47:19;54204.59;;;-143.77;71.38
13836;BME280;6988;52.614;13.500;2022-10-24T18:52:18;54192.28;;;-143.77;71.40
13836;BME280;6988;52.614;13.500;2022-10-24T18:57:21;54175.88;;;-143.77;71.35
13836;BME280;6988;52.614;13.500;2022-10-24T19:02:27;54163.56;;;-143.77;71.39
13836;BME280;6988;52.614;13.500;2022-10-24T19:07:21;54182.03;;;-143.77;71.28
13836;BME280;6988;52.614;13.500;2022-10-24T19:12:13;54196.41;;;-143.77;71.69
13836;BME280;6988;52.614;13.500;2022-10-24T19:17:05;54171.78;;;-143.77;71.88
13836;BME280;6988;52.614;13.500;2022-10-24T19:21:58;54188.19;;;-143.77;72.16
13836;BME280;6988;52.614;13.500;2022-10-24T19:26:51;54186.13;;;-143.77;71.87
13836;BME280;6988;52.614;13.500;2022-10-24T19:31:44;54171.78;;;-143.77;72.30
13836;BME280;6988;52.614;13.500;2022-10-24T19:36:36;54196.41;;;-143.77;72.26
13836;BME280;6988;52.614;13.500;2022-10-24T19:41:30;54194.34;;;-143.77;72.25
13836;BME280;6988;52.614;13.500;2022-10-24T19:46:22;54206.66;;;-143.77;72.38
13836;BME280;6988;52.614;13.500;2022-10-24T19:51:15;54196.41;;;-143.77;72.46
13836;BME280;6988;52.614;13.500;2022-10-24T19:56:09;54186.13;;;-143.77;72.79
13836;BME280;6988;52.614;13.500;2022-10-24T20:01:06;54235.38;;;-143.77;73.06
13836;BME280;6988;52.614;13.500;2022-10-24T20:05:58;54229.22;;;-143.77;73.12
13836;BME280;6988;52.614;13.500;2022-10-24T20:10:50;54200.50;;;-143.77;73.20
13836;BME280;6988;52.614;13.500;2022-10-24T20:15:42;54210.75;;;-143.77;73.41
13836;BME280;6988;52.614;13.500;2022-10-24T20:20:36;54190.25;;;-143.77;73.77
13836;BME280;6988;52.614;13.500;2022-10-24T20:31:58;54179.97;;;-143.77;74.18
13836;BME280;6988;52.614;13.500;2022-10-24T20:36:51;54214.88;;;-143.77;74.26
13836;BME280;6988;52.614;13.500;2022-10-24T20:41:43;54237.44;;;-143.77;74.50
13836;BME280;6988;52.614;13.500;2022-10-24T20:46:35;54208.72;;;-143.77;74.90
13836;BME280;6988;52.614;13.500;2022-10-24T20:51:27;54221.03;;;-143.77;75.22
13836;BME280;6988;52.614;13.500;2022-10-24T20:56:23;54247.69;;;-143.77;74.99
13836;BME280;6988;52.614;13.500;2022-10-24T21:01:18;54233.31;;;-143.77;75.07
13836;BME280;6988;52.614;13.500;2022-10-24T21:06:17;54229.22;;;-143.77;75.53
13836;BME280;6988;52.614;13.500;2022-10-24T21:11:11;54245.63;;;-143.77;75.86
13836;BME280;6988;52.614;13.500;2022-10-24T21:16:06;54237.44;;;-143.77;75.75
13836;BME280;6988;52.614;13.500;2022-10-24T21:21:04;54249.75;;;-143.77;76.21
13836;BME280;6988;52.614;13.500;2022-10-24T21:26:01;54249.75;;;-143.77;76.40
13836;BME280;6988;52.614;13.500;2022-10-24T21:30:53;54231.28;;;-143.77;76.39
13836;BME280;6988;52.614;13.500;2022-10-24T21:35:46;54239.47;;;-143.77;76.32
13836;BME280;6988;52.614;13.500;2022-10-24T21:40:38;54235.38;;;-143.77;76.30
13836;BME280;6988;52.614;13.500;2022-10-24T21:45:33;54237.44;;;-143.77;76.87
13836;BME280;6988;52.614;13.500;2022-10-24T22:04:56;54229.22;;;-143.77;78.04
13836;BME280;6988;52.614;13.500;2022-10-24T22:09:48;54253.84;;;-143.77;78.37
13836;BME280;6988;52.614;13.500;2022-10-24T22:14:40;54276.41;;;-143.77;78.37
13836;BME280;6988;52.614;13.500;2022-10-24T22:19:32;54268.22;;;-143.77;78.43
13836;BME280;6988;52.614;13.500;2022-10-24T22:24:25;54255.91;;;-143.77;78.48
13836;BME280;6988;52.614;13.500;2022-10-24T22:29:20;54274.38;;;-143.77;78.63
13836;BME280;6988;52.614;13.500;2022-10-24T22:34:16;54276.41;;;-143.77;78.46
13836;BME280;6988;52.614;13.500;2022-10-24T22:39:14;54262.06;;;-143.77;78.21
13836;BME280;6988;52.614;13.500;2022-10-24T22:44:11;54247.69;;;-143.77;78.19
13836;BME280;6988;52.614;13.500;2022-10-24T22:49:11;54262.06;;;-143.77;78.39
13836;BME280;6988;52.614;13.500;2022-10-24T22:54:13;54243.59;;;-143.77;78.15
13836;BME280;6988;52.614;13.500;2022-10-24T22:59:10;54274.38;;;-143.77;78.26
13836;BME280;6988;52.614;13.500;2022-10-24T23:04:14;54262.06;;;-143.77;78.50
13836;BME280;6988;52.614;13.500;2022-10-24T23:09:10;54255.91;;;-143.77;78.32
13836;BME280;6988;52.614;13.500;2022-10-24T23:14:03;54235.38;;;-143.77;78.76
13836;BME280;6988;52.614;13.500;2022-10-24T23:18:58;54268.22;;;-143.77;78.97
13836;BME280;6988;52.614;13.500;2022-10-24T23:23:50;54247.69;;;-143.77;79.31
13836;BME280;6988;52.614;13.500;2022-10-24T23:28:49;54272.31;;;-143.77;79.63
13836;BME280;6988;52.614;13.500;2022-10-24T23:33:48;54286.69;;;-143.77;80.20
13836;BME280;6988;52.614;13.500;2022-10-24T23:38:42;54268.22;;;-143.77;80.24
13836;BME280;6988;52.614;13.500;2022-10-24T23:43:34;54313.34;;;-143.77;80.39
13836;BME280;6988;52.614;13.500;2022-10-24T23:48:44;54292.84;;;-143.77;80.62
13836;BME280;6988;52.614;13.500;2022-10-24T23:53:47;54327.72;;;-143.77;81.00
13836;BME280;6988;52.614;13.500;2022-10-24T23:58:40;54303.09;;;-143.77;81.24
